Time;durP1;ratioP1;P1;durP2;ratioP2;P2;SDS_P1;SDS_P2;PMS_P1;PMS_P2;Temp;Humidity;BMP_temperature;BMP_pressure;BME280_temperature;BME280_humidity;BME280_pressure;Samples;Min_cycle;Max_cycle;Signal;HPM_P1;HPM_P2
2021/09/06 00:00:08;;;;;;;8.40;4.82;;;;;;;12.78;94.73;98982.59;5026317;28;20036;-65
2021/09/06 00:02:33;;;;;;;6.75;4.47;;;;;;;12.72;94.06;98988.03;5026197;28;20022;-65
2021/09/06 00:04:59;;;;;;;9.13;4.60;;;;;;;12.68;94.29;98986.38;5026005;28;20068;-65
2021/09/06 00:07:24;;;;;;;9.35;5.18;;;;;;;12.63;94.14;98988.22;5026043;28;20029;-65
2021/09/06 00:09:53;;;;;;;10.45;3.85;;;;;;;12.58;94.64;98983.94;5026010;28;20018;-65
2021/09/06 00:12:19;;;;;;;5.00;3.53;;;;;;;12.65;95.32;98989.06;5025977;28;20049;-65
2021/09/06 00:14:44;;;;;;;8.00;5.32;;;;;;;12.54;94.96;98988.44;5025913;28;20033;-65
2021/09/06 00:17:10;;;;;;;6.38;4.75;;;;;;;12.49;94.99;98989.44;5025899;28;20024;-65
2021/09/06 00:19:35;;;;;;;7.65;5.10;;;;;;;12.51;94.84;98983.22;5025788;28;20093;-65
2021/09/06 00:22:01;;;;;;;9.70;4.70;;;;;;;12.42;94.65;98972.88;5025823;28;20053;-65
2021/09/06 00:24:26;;;;;;;7.10;4.47;;;;;;;12.47;94.89;98976.25;5025744;28;20033;-65
2021/09/06 00:26:51;;;;;;;8.68;4.95;;;;;;;12.60;94.48;98988.28;5025711;28;20085;-65
2021/09/06 00:29:17;;;;;;;7.32;5.00;;;;;;;12.53;94.18;98981.41;5025663;28;20022;-65
2021/09/06 00:31:42;;;;;;;7.40;4.78;;;;;;;12.44;94.10;98984.25;5008096;28;20076;-65
2021/09/06 00:34:08;;;;;;;9.90;5.78;;;;;;;12.47;94.16;98985.97;5025549;28;20022;-65
2021/09/06 00:36:34;;;;;;;8.23;5.72;;;;;;;12.52;94.80;98992.88;5025548;28;20032;-65
2021/09/06 00:38:59;;;;;;;11.82;5.88;;;;;;;12.39;93.75;98986.13;5025490;28;20072;-65
2021/09/06 00:41:25;;;;;;;6.13;4.53;;;;;;;12.53;94.11;98991.13;5025358;28;20085;-65
2021/09/06 00:43:52;;;;;;;6.85;5.07;;;;;;;12.55;94.36;98989.28;5025372;28;20318;-65
2021/09/06 00:46:17;;;;;;;7.32;5.13;;;;;;;12.53;94.17;98989.31;5025385;28;20088;-65
2021/09/06 00:48:42;;;;;;;11.23;5.05;;;;;;;12.52;94.21;98987.59;5025311;28;20313;-65
2021/09/06 00:51:08;;;;;;;8.85;5.15;;;;;;;12.30;93.38;98988.94;5025226;28;20018;-65
2021/09/06 00:53:34;;;;;;;9.38;4.43;;;;;;;12.21;93.38;98989.13;5025215;28;20026;-65
2021/09/06 00:55:59;;;;;;;10.45;5.18;;;;;;;12.10;93.33;98985.84;5025145;28;20062;-65
2021/09/06 00:58:27;;;;;;;7.43;4.80;;;;;;;12.12;93.86;98988.47;5025132;28;20025;-65
2021/09/06 01:00:52;;;;;;;7.38;4.90;;;;;;;12.18;93.90;98988.34;5024979;28;20412;-65
2021/09/06 01:03:18;;;;;;;7.63;4.75;;;;;;;12.28;94.10;98987.25;5024721;28;20037;-65
2021/09/06 01:05:43;;;;;;;12.23;5.60;;;;;;;12.07;93.66;98988.56;5024983;28;20080;-65
2021/09/06 01:08:09;;;;;;;7.55;4.95;;;;;;;12.13;94.17;98991.06;5024983;28;20089;-65
2021/09/06 01:10:34;;;;;;;8.52;4.45;;;;;;;12.21;94.18;98994.41;5024205;28;20107;-65
2021/09/06 01:13:00;;;;;;;9.73;4.93;;;;;;;12.22;94.04;98988.22;5024875;28;20021;-65
2021/09/06 01:15:25;;;;;;;9.20;5.13;;;;;;;12.12;94.01;98986.66;5024851;28;20025;-65
2021/09/06 01:17:50;;;;;;;10.52;6.65;;;;;;;11.89;94.05;98980.97;5024784;28;20033;-65
2021/09/06 01:20:16;;;;;;;11.80;5.30;;;;;;;11.83;94.23;98991.63;5024922;28;20025;-65
2021/09/06 01:22:42;;;;;;;7.00;4.63;;;;;;;11.77;94.36;98986.47;5024709;28;20191;-65
2021/09/06 01:25:07;;;;;;;7.55;4.80;;;;;;;11.85;94.21;98995.13;5024716;28;20022;-65
2021/09/06 01:27:33;;;;;;;8.02;5.35;;;;;;;11.99;95.09;98987.81;5024596;28;20028;-65
2021/09/06 01:29:59;;;;;;;8.35;4.60;;;;;;;12.05;94.05;98998.25;5024833;28;20021;-65
2021/09/06 01:32:24;;;;;;;9.85;4.78;;;;;;;12.06;93.54;98989.44;5024544;28;20029;-65
2021/09/06 01:34:50;;;;;;;8.35;5.25;;;;;;;11.85;93.58;98997.78;5024487;28;20017;-65
2021/09/06 01:37:16;;;;;;;5.80;3.80;;;;;;;11.86;93.43;98996.88;5024498;28;20089;-65
2021/09/06 01:39:42;;;;;;;7.65;3.80;;;;;;;11.88;93.64;98996.84;5024389;28;20025;-65
2021/09/06 01:42:07;;;;;;;6.13;4.18;;;;;;;11.70;94.08;98995.41;5024404;28;20028;-65
2021/09/06 01:44:33;;;;;;;7.30;3.20;;;;;;;11.82;94.58;99000.47;5024335;28;20018;-65
2021/09/06 01:46:58;;;;;;;8.15;4.25;;;;;;;11.76;93.88;98995.28;5024611;28;20025;-65
2021/09/06 01:49:24;;;;;;;9.05;4.00;;;;;;;11.78;94.20;98998.78;5024555;28;20022;-65
2021/09/06 01:51:49;;;;;;;4.57;3.00;;;;;;;11.81;94.48;98998.75;5024291;28;20046;-65
2021/09/06 01:54:15;;;;;;;9.93;4.78;;;;;;;11.84;94.44;99003.94;5024275;28;20025;-65
2021/09/06 01:56:40;;;;;;;9.13;5.20;;;;;;;11.80;94.42;98996.97;5024221;28;20322;-65
2021/09/06 01:59:05;;;;;;;7.82;5.28;;;;;;;11.80;94.20;99007.53;5024228;28;20141;-65
2021/09/06 02:01:31;;;;;;;9.27;5.50;;;;;;;11.75;94.25;99001.47;5024141;28;20021;-66
2021/09/06 02:03:56;;;;;;;8.77;5.15;;;;;;;11.70;94.13;99000.69;5023912;28;20080;-66
2021/09/06 02:06:22;;;;;;;7.45;4.95;;;;;;;11.70;93.97;99000.69;5006750;28;20053;-66
2021/09/06 02:08:47;;;;;;;9.05;5.50;;;;;;;11.56;93.50;99007.94;5024293;28;20044;-66
2021/09/06 02:11:14;;;;;;;11.73;5.38;;;;;;;11.48;93.87;99004.56;5024348;28;20251;-67
2021/09/06 02:13:39;;;;;;;7.60;4.40;;;;;;;11.40;93.89;99006.47;5024295;28;20029;-67
2021/09/06 02:16:05;;;;;;;11.23;4.72;;;;;;;11.36;93.63;99004.75;5024218;28;20017;-67
2021/09/06 02:18:31;;;;;;;7.90;4.88;;;;;;;11.35;93.80;98997.75;5024156;28;20022;-67
2021/09/06 02:20:56;;;;;;;9.20;5.13;;;;;;;11.35;94.36;99003.03;5024446;28;20022;-67
2021/09/06 02:23:21;;;;;;;7.43;4.47;;;;;;;11.49;94.04;99001.03;5028241;28;20067;-67
2021/09/06 02:25:47;;;;;;;9.02;5.82;;;;;;;11.33;93.96;99002.16;5028139;28;20018;-67
2021/09/06 02:28:12;;;;;;;6.85;4.40;;;;;;;11.30;94.28;98999.63;5028264;28;20028;-67
2021/09/06 02:30:38;;;;;;;8.68;4.50;;;;;;;11.33;94.29;98994.25;5027936;28;20313;-67
2021/09/06 02:33:04;;;;;;;7.75;4.53;;;;;;;11.42;94.45;98999.38;5027872;28;20044;-67
2021/09/06 02:35:29;;;;;;;7.95;4.95;;;;;;;11.38;93.98;99002.97;5027788;28;20194;-67
2021/09/06 02:37:55;;;;;;;10.77;4.97;;;;;;;11.42;94.01;98999.38;5027783;28;20097;-67
2021/09/06 02:40:20;;;;;;;7.13;4.95;;;;;;;11.47;94.31;98992.28;5027628;28;20032;-67
2021/09/06 02:42:46;;;;;;;6.80;3.10;;;;;;;11.51;94.03;99006.25;5027664;28;20029;-67
2021/09/06 02:45:12;;;;;;;7.05;5.40;;;;;;;11.18;93.77;99004.19;5027676;28;20329;-67
2021/09/06 02:47:38;;;;;;;6.68;4.28;;;;;;;11.27;93.90;99004.94;5027639;28;20013;-67
2021/09/06 02:50:04;;;;;;;10.80;4.90;;;;;;;11.24;93.76;99004.97;5027542;28;20038;-67
2021/09/06 02:52:31;;;;;;;12.55;4.32;;;;;;;11.26;93.95;99003.16;5027489;28;20041;-67
2021/09/06 02:54:56;;;;;;;6.50;4.32;;;;;;;11.29;94.41;99003.13;5027446;28;20014;-67
2021/09/06 02:57:22;;;;;;;4.93;3.15;;;;;;;11.36;94.11;98999.47;5027396;28;20072;-67
2021/09/06 02:59:47;;;;;;;7.40;5.13;;;;;;;11.22;93.59;99005.88;5027294;28;20221;-67
2021/09/06 03:02:12;;;;;;;8.48;3.92;;;;;;;11.28;93.87;99006.66;5027358;28;20029;-67
2021/09/06 03:04:38;;;;;;;6.75;4.75;;;;;;;11.24;93.66;99007.59;5027076;28;20041;-67
2021/09/06 03:07:03;;;;;;;6.65;4.28;;;;;;;11.12;93.72;99005.16;5027234;28;20104;-67
2021/09/06 03:09:29;;;;;;;5.78;3.88;;;;;;;11.07;94.41;98999.09;5027178;28;20028;-67
2021/09/06 03:11:54;;;;;;;6.57;4.68;;;;;;;10.99;94.13;99008.88;5027133;28;20028;-67
2021/09/06 03:14:20;;;;;;;4.53;2.95;;;;;;;11.09;94.74;99009.59;5027082;28;20317;-67
2021/09/06 03:16:45;;;;;;;5.10;3.38;;;;;;;11.13;94.00;99011.31;5027086;28;20026;-67
2021/09/06 03:19:10;;;;;;;7.90;3.50;;;;;;;10.90;94.14;99003.75;5026975;28;20045;-67
2021/09/06 03:21:36;;;;;;;8.60;3.58;;;;;;;10.97;94.11;99009.81;5026909;28;20065;-67
2021/09/06 03:24:01;;;;;;;5.90;3.95;;;;;;;11.04;94.29;99014.94;5026933;28;20026;-65
2021/09/06 03:26:27;;;;;;;6.60;4.03;;;;;;;11.15;94.35;99010.38;5026822;28;20048;-65
2021/09/06 03:28:52;;;;;;;6.50;4.47;;;;;;;11.20;94.71;99008.53;5027058;28;20021;-65
2021/09/06 03:31:17;;;;;;;9.45;4.22;;;;;;;11.19;93.87;99011.19;5026738;28;20060;-65
2021/09/06 03:33:43;;;;;;;6.47;4.20;;;;;;;11.22;93.52;99006.75;5025953;28;20033;-65
2021/09/06 03:36:08;;;;;;;8.55;4.20;;;;;;;11.12;93.82;99005.16;5026723;28;20083;-65
2021/09/06 03:38:34;;;;;;;4.80;3.25;;;;;;;11.09;93.87;99002.56;5026699;28;20021;-65
2021/09/06 03:40:59;;;;;;;4.13;2.80;;;;;;;11.11;94.04;98997.28;5026670;28;20026;-65
2021/09/06 03:43:25;;;;;;;8.27;3.35;;;;;;;11.13;93.98;99009.53;5026568;28;20072;-65
2021/09/06 03:45:50;;;;;;;10.15;3.53;;;;;;;11.02;93.87;98998.31;5026487;28;20029;-65
2021/09/06 03:48:16;;;;;;;10.60;3.55;;;;;;;11.11;94.17;99003.44;5026442;28;20028;-65
2021/09/06 03:50:41;;;;;;;6.55;3.67;;;;;;;11.13;93.88;98999.00;5026433;28;20036;-65
2021/09/06 03:53:07;;;;;;;4.03;3.22;;;;;;;11.11;94.08;98994.66;5026362;28;20028;-65
2021/09/06 03:55:32;;;;;;;4.63;3.05;;;;;;;11.13;93.99;99006.91;5026338;28;20089;-65
2021/09/06 03:57:57;;;;;;;4.97;3.75;;;;;;;11.07;94.14;99000.88;5026516;28;20022;-65
2021/09/06 04:00:23;;;;;;;6.28;4.13;;;;;;;11.03;94.13;99002.66;5026176;28;20045;-65
2021/09/06 04:02:48;;;;;;;4.93;3.13;;;;;;;11.07;94.00;99001.72;5025938;28;20022;-66
2021/09/06 04:05:14;;;;;;;11.13;4.15;;;;;;;11.00;93.72;99000.06;5026176;28;20085;-66
2021/09/06 04:07:39;;;;;;;8.55;5.47;;;;;;;10.88;93.27;99000.25;5026113;28;20140;-66
2021/09/06 04:10:05;;;;;;;10.45;4.55;;;;;;;10.91;93.71;99003.72;5026161;28;20080;-66
2021/09/06 04:12:30;;;;;;;5.97;3.70;;;;;;;10.95;93.89;98999.28;5025995;28;20029;-67
2021/09/06 04:14:56;;;;;;;8.98;4.57;;;;;;;10.91;93.78;99001.09;5025963;28;20022;-67
2021/09/06 04:17:21;;;;;;;7.85;3.83;;;;;;;10.91;94.29;99000.22;5025896;28;20021;-67
2021/09/06 04:19:47;;;;;;;22.58;4.50;;;;;;;10.62;94.69;99007.66;5025806;28;20260;-67
2021/09/06 04:22:12;;;;;;;8.35;4.30;;;;;;;10.56;95.77;99007.72;5025816;28;20017;-67
2021/09/06 04:24:38;;;;;;;10.43;4.57;;;;;;;10.64;95.13;99011.16;5025754;28;20022;-67
2021/09/06 04:27:03;;;;;;;13.80;4.82;;;;;;;10.63;95.24;99014.66;5025688;28;20068;-67
2021/09/06 04:29:29;;;;;;;6.93;4.55;;;;;;;10.63;95.02;99014.66;5025666;28;20025;-67
2021/09/06 04:31:54;;;;;;;6.85;4.65;;;;;;;10.61;94.65;99026.97;5025641;28;20085;-67
2021/09/06 04:34:20;;;;;;;7.88;4.72;;;;;;;10.73;94.14;99026.81;5008086;28;20021;-67
2021/09/06 04:36:46;;;;;;;7.07;4.72;;;;;;;10.73;93.70;99029.47;5025549;28;20021;-67
2021/09/06 04:39:11;;;;;;;8.10;5.25;;;;;;;10.60;93.81;99035.78;5025488;28;20025;-67
2021/09/06 04:41:37;;;;;;;8.45;5.35;;;;;;;10.47;94.32;99031.53;5025409;28;20328;-67
2021/09/06 04:44:02;;;;;;;7.63;4.47;;;;;;;10.44;94.10;99034.25;5025346;28;20332;-67
2021/09/06 04:46:28;;;;;;;6.95;4.88;;;;;;;10.42;93.92;99038.63;5024625;28;20332;-67
2021/09/06 04:48:53;;;;;;;7.68;5.15;;;;;;;10.39;94.39;99041.31;5025341;28;20033;-67
2021/09/06 04:51:18;;;;;;;10.23;5.57;;;;;;;10.54;94.78;99046.38;5025279;28;20069;-67
2021/09/06 04:53:46;;;;;;;8.30;5.28;;;;;;;10.57;94.46;99041.09;5025224;28;20225;-67
2021/09/06 04:56:13;;;;;;;9.20;5.13;;;;;;;10.61;94.10;99043.66;5007648;28;20021;-67
2021/09/06 04:58:39;;;;;;;8.98;5.25;;;;;;;10.61;93.43;99045.41;5025129;28;20068;-67
2021/09/06 05:01:05;;;;;;;7.05;4.93;;;;;;;10.53;93.58;99052.50;5025108;28;20029;-67
2021/09/06 05:03:30;;;;;;;8.13;5.25;;;;;;;10.48;93.65;99051.72;5024840;28;20041;-67
2021/09/06 05:05:58;;;;;;;10.10;5.85;;;;;;;10.41;94.25;99055.31;5025014;28;20029;-67
2021/09/06 05:08:28;;;;;;;9.23;4.50;;;;;;;10.55;93.98;99059.53;5025254;28;20026;-67
2021/09/06 05:10:54;;;;;;;7.72;4.88;;;;;;;10.59;93.76;99057.72;5025205;28;20111;-67
2021/09/06 05:13:21;;;;;;;8.95;5.20;;;;;;;10.52;93.68;99063.94;5024865;28;20256;-67
2021/09/06 05:15:46;;;;;;;9.88;5.63;;;;;;;10.38;93.45;99060.63;5024833;28;20052;-67
2021/09/06 05:18:11;;;;;;;7.30;5.07;;;;;;;10.45;94.13;99067.53;5024814;28;20221;-67
2021/09/06 05:20:37;;;;;;;7.13;4.70;;;;;;;10.56;93.98;99068.28;5024683;28;20132;-67
2021/09/06 05:23:04;;;;;;;7.63;4.25;;;;;;;10.62;93.93;99066.44;5024719;28;20344;-67
2021/09/06 05:25:29;;;;;;;7.90;4.85;;;;;;;10.73;93.79;99063.69;5024665;28;20249;-67
2021/09/06 05:27:55;;;;;;;9.00;6.00;;;;;;;10.79;93.72;99063.59;5024646;28;20077;-67
2021/09/06 05:30:21;;;;;;;7.88;5.53;;;;;;;10.79;93.85;99068.88;5024564;28;20121;-67
2021/09/06 05:32:46;;;;;;;7.97;5.55;;;;;;;10.88;93.76;99069.59;5024583;28;20052;-67
2021/09/06 05:35:12;;;;;;;9.35;5.40;;;;;;;11.02;93.49;99076.44;5024500;28;20022;-67
2021/09/06 05:37:37;;;;;;;7.80;5.05;;;;;;;11.29;92.82;99071.63;5024501;28;20029;-67
2021/09/06 05:40:04;;;;;;;5.88;3.70;;;;;;;11.63;92.22;99070.25;5024393;28;20025;-67
2021/09/06 05:42:30;;;;;;;5.82;3.53;;;;;;;12.05;90.97;99069.50;5024441;28;20022;-67
2021/09/06 05:44:55;;;;;;;4.65;3.25;;;;;;;12.43;89.29;99074.91;5024352;28;20025;-67
2021/09/06 05:47:21;;;;;;;5.55;3.33;;;;;;;12.86;87.81;99083.72;5024343;28;20228;-67
2021/09/06 05:49:47;;;;;;;5.40;2.72;;;;;;;13.20;86.27;99083.88;5024341;28;20029;-68
2021/09/06 05:52:12;;;;;;;3.75;2.88;;;;;;;13.54;85.03;99090.09;5024373;28;20089;-67
2021/09/06 05:54:38;;;;;;;5.40;3.05;;;;;;;13.82;83.92;99087.63;5024349;28;20025;-67
2021/09/06 05:57:03;;;;;;;4.32;2.95;;;;;;;14.10;82.17;99088.66;5023893;28;20084;-67
2021/09/06 05:59:29;;;;;;;6.00;3.20;;;;;;;14.21;81.38;99091.94;5024258;28;20026;-67
2021/09/06 06:01:54;;;;;;;10.10;3.28;;;;;;;14.51;80.72;99092.00;5024099;28;20032;-67
2021/09/06 06:04:19;;;;;;;6.97;3.42;;;;;;;14.79;79.67;99089.44;5023974;28;20045;-67
2021/09/06 06:06:45;;;;;;;9.52;3.90;;;;;;;15.11;79.10;99094.66;5024142;28;20026;-65
2021/09/06 06:09:10;;;;;;;7.32;4.05;;;;;;;15.42;78.31;99084.88;5024104;28;20058;-65
2021/09/06 06:11:40;;;;;;;9.35;4.50;;;;;;;15.50;78.06;99093.44;5024100;28;20096;-65
2021/09/06 06:14:06;;;;;;;7.25;4.13;;;;;;;15.96;76.71;99083.06;5024297;28;20021;-65
2021/09/06 06:16:32;;;;;;;8.90;4.47;;;;;;;16.22;74.96;99080.38;5024066;28;20244;-65
2021/09/06 06:18:57;;;;;;;6.57;3.83;;;;;;;16.37;74.66;99079.84;5024021;28;20025;-65
2021/09/06 06:21:23;;;;;;;10.02;4.50;;;;;;;16.71;74.04;99091.03;5023933;28;20028;-65
2021/09/06 06:23:49;;;;;;;10.60;4.97;;;;;;;16.91;73.15;99091.19;5023980;28;20025;-65
2021/09/06 06:26:15;;;;;;;7.85;4.40;;;;;;;17.30;72.74;99086.09;5024022;28;20048;-65
2021/09/06 06:28:40;;;;;;;7.55;4.68;;;;;;;17.50;71.67;99093.34;5023946;28;20021;-65
2021/09/06 06:31:06;;;;;;;6.93;5.05;;;;;;;17.86;70.57;99086.53;5006397;28;20040;-65
2021/09/06 06:33:31;;;;;;;9.82;5.20;;;;;;;18.12;70.34;99089.84;5023879;28;20022;-65
2021/09/06 06:36:01;;;;;;;7.53;4.53;;;;;;;18.63;69.74;99095.59;5023864;28;20025;-65
2021/09/06 06:38:28;;;;;;;10.43;4.35;;;;;;;18.96;68.15;99098.56;5024036;28;20018;-65
2021/09/06 06:40:53;;;;;;;7.50;4.80;;;;;;;19.32;67.96;99099.56;5023727;28;20032;-65
2021/09/06 06:43:19;;;;;;;7.38;5.10;;;;;;;19.35;67.62;99094.09;5023760;28;20049;-65
2021/09/06 06:45:44;;;;;;;8.23;4.72;;;;;;;19.93;65.82;99098.34;5023741;28;20068;-65
2021/09/06 06:48:10;;;;;;;6.65;4.55;;;;;;;20.04;66.36;99098.69;5023743;28;20029;-65
2021/09/06 06:50:35;;;;;;;8.02;4.90;;;;;;;20.46;65.74;99096.53;5023717;28;20017;-65
2021/09/06 06:53:00;;;;;;;9.52;4.95;;;;;;;20.84;65.09;99106.09;5023681;28;20025;-65
2021/09/06 06:55:26;;;;;;;10.95;5.25;;;;;;;20.29;67.13;99104.56;5023710;28;20325;-65
2021/09/06 06:57:51;;;;;;;7.60;4.50;;;;;;;21.00;64.71;99108.81;5023639;28;20030;-65
2021/09/06 07:00:17;;;;;;;7.00;5.05;;;;;;;21.29;64.32;99095.59;5023532;28;20025;-65
2021/09/06 07:02:43;;;;;;;10.18;5.15;;;;;;;21.51;64.63;99113.16;5023377;28;20088;-65
2021/09/06 07:05:09;;;;;;;10.10;5.40;;;;;;;21.91;62.62;99105.50;5023680;28;20049;-65
2021/09/06 07:07:35;;;;;;;8.68;5.15;;;;;;;22.03;63.67;99109.28;5023530;28;20076;-65
2021/09/06 07:10:00;;;;;;;9.68;5.45;;;;;;;22.42;58.07;99109.63;5027017;28;20041;-65
2021/09/06 07:12:26;;;;;;;8.82;5.55;;;;;;;22.61;62.60;99110.28;5027195;28;20064;-65
2021/09/06 07:14:51;;;;;;;9.07;6.03;;;;;;;22.96;62.39;99114.34;5027089;28;20029;-65
2021/09/06 07:17:17;;;;;;;9.30;6.32;;;;;;;23.27;61.26;99106.16;5027105;28;20269;-65
2021/09/06 07:19:42;;;;;;;9.35;5.63;;;;;;;23.86;61.78;99111.25;5026961;28;20017;-65
2021/09/06 07:22:08;;;;;;;9.57;5.88;;;;;;;23.87;60.89;99107.59;5026962;28;20017;-65
2021/09/06 07:24:33;;;;;;;9.57;5.75;;;;;;;24.29;58.91;99110.16;5026942;28;20033;-65
2021/09/06 07:26:58;;;;;;;10.43;6.32;;;;;;;24.10;60.51;99109.66;5026905;28;20024;-65
2021/09/06 07:29:24;;;;;;;12.38;6.85;;;;;;;23.05;61.84;99121.84;5026819;28;20029;-65
2021/09/06 07:31:49;;;;;;;9.55;7.00;;;;;;;22.97;62.88;99118.78;5026782;28;20020;-65
2021/09/06 07:34:15;;;;;;;15.60;8.05;;;;;;;23.21;63.48;99128.00;5026746;28;20060;-65
2021/09/06 07:36:40;;;;;;;10.25;6.78;;;;;;;24.50;60.85;99121.28;5026761;28;20024;-65
2021/09/06 07:39:06;;;;;;;12.32;7.18;;;;;;;25.30;57.90;99136.28;5026924;28;20022;-65
2021/09/06 07:41:32;;;;;;;10.27;7.78;;;;;;;25.51;58.21;99130.34;5026527;28;20026;-65
2021/09/06 07:43:57;;;;;;;13.25;8.63;;;;;;;24.77;59.17;99128.38;5026576;28;20029;-65
2021/09/06 07:46:23;;;;;;;12.60;8.23;;;;;;;25.61;57.58;99137.66;5026542;28;20029;-65
2021/09/06 07:48:48;;;;;;;11.07;8.15;;;;;;;25.92;58.43;99137.16;5026485;28;20124;-65
2021/09/06 07:51:13;;;;;;;10.52;7.68;;;;;;;26.29;54.92;99138.03;5026427;28;20018;-65
2021/09/06 07:53:39;;;;;;;19.00;8.73;;;;;;;26.37;55.39;99138.28;5026393;28;20128;-65
2021/09/06 07:56:04;;;;;;;12.85;9.00;;;;;;;26.97;52.43;99147.16;5026626;28;20101;-65
2021/09/06 07:58:30;;;;;;;15.60;9.80;;;;;;;26.80;52.93;99144.91;5026275;28;20124;-65
2021/09/06 08:00:55;;;;;;;13.45;9.43;;;;;;;27.28;51.01;99154.63;5008719;28;20025;-65
2021/09/06 08:03:20;;;;;;;15.75;10.23;;;;;;;27.36;50.74;99152.16;5025959;28;20052;-65
2021/09/06 08:05:46;;;;;;;14.93;9.13;;;;;;;27.66;50.40;99155.13;5026179;28;20022;-65
2021/09/06 08:08:11;;;;;;;16.52;9.88;;;;;;;27.39;49.45;99162.72;5026172;28;20022;-66
2021/09/06 08:10:38;;;;;;;14.57;9.50;;;;;;;27.21;54.46;99164.16;5026090;28;20017;-66
2021/09/06 08:13:03;;;;;;;15.77;9.23;;;;;;;27.97;50.00;99165.19;5026054;28;20048;-66
2021/09/06 08:15:29;;;;;;;19.40;9.93;;;;;;;28.03;50.69;99164.69;5025957;28;20217;-66
2021/09/06 08:17:56;;;;;;;15.20;9.50;;;;;;;28.63;49.76;99165.06;5025930;28;20022;-66
2021/09/06 08:20:22;;;;;;;17.48;10.60;;;;;;;27.45;50.40;99162.25;5025544;28;20029;-66
2021/09/06 08:22:48;;;;;;;11.25;9.15;;;;;;;28.14;50.79;99155.69;5025820;28;20022;-66
2021/09/06 08:25:15;;;;;;;16.00;10.02;;;;;;;28.19;49.23;99164.31;5025819;28;20084;-66
2021/09/06 08:27:41;;;;;;;12.82;9.05;;;;;;;28.78;49.00;99171.91;5025757;28;20093;-66
2021/09/06 08:30:09;;;;;;;14.68;9.20;;;;;;;28.62;50.78;99171.47;5025673;28;20021;-66
2021/09/06 08:32:34;;;;;;;18.27;9.85;;;;;;;28.99;49.21;99167.38;5025670;28;20017;-66
2021/09/06 08:35:00;;;;;;;13.88;9.10;;;;;;;29.75;47.13;99177.88;5025628;28;20026;-66
2021/09/06 08:37:25;;;;;;;16.50;9.18;;;;;;;29.55;47.06;99172.44;5025583;28;20220;-66
2021/09/06 08:39:51;;;;;;;12.82;8.10;;;;;;;29.70;47.04;99179.28;5025425;28;20022;-66
2021/09/06 08:42:18;;;;;;;13.02;8.52;;;;;;;29.41;50.03;99173.66;5025487;28;20026;-66
2021/09/06 08:44:44;;;;;;;13.20;9.32;;;;;;;29.59;48.07;99176.59;5025443;28;20022;-66
2021/09/06 08:47:09;;;;;;;13.40;9.27;;;;;;;29.75;48.57;99179.72;5025403;28;20032;-66
2021/09/06 08:49:35;;;;;;;12.90;8.52;;;;;;;29.80;47.93;99177.47;5025335;28;20022;-66
2021/09/06 08:52:00;;;;;;;14.18;7.85;;;;;;;29.82;46.92;99183.59;5025281;28;20305;-66
2021/09/06 08:54:25;;;;;;;11.90;8.00;;;;;;;29.68;47.26;99181.25;5025237;28;20018;-66
2021/09/06 08:56:51;;;;;;;13.73;7.88;;;;;;;30.00;46.08;99180.09;5025176;28;20072;-66
2021/09/06 08:59:18;;;;;;;15.93;8.10;;;;;;;30.01;45.49;99184.53;5025170;28;20048;-66
2021/09/06 09:01:51;;;;;;;12.25;7.55;;;;;;;30.38;45.64;99171.22;5025091;28;20033;-66
2021/09/06 09:04:23;;;;;;;10.05;7.55;;;;;;;30.32;47.43;99177.22;5024841;28;20124;-66
2021/09/06 09:06:51;;;;;;;12.35;7.78;;;;;;;30.38;44.61;99182.97;5025150;28;20028;-66
2021/09/06 09:09:37;;;;;;;10.18;7.28;;;;;;;30.18;42.38;99175.75;5024995;28;20094;-66
2021/09/06 09:12:13;;;;;;;13.98;7.00;;;;;;;30.22;43.04;99176.34;5024980;28;20026;-66
2021/09/06 09:14:47;;;;;;;14.68;7.00;;;;;;;29.78;42.12;99183.03;5024898;28;20025;-66
2021/09/06 09:17:13;;;;;;;11.98;7.32;;;;;;;29.78;45.22;99179.44;5024906;28;20343;-66
2021/09/06 09:19:39;;;;;;;8.93;6.38;;;;;;;30.29;44.22;99182.94;5024803;28;20022;-66
2021/09/06 09:22:10;;;;;;;10.68;6.90;;;;;;;30.74;43.90;99184.16;5024710;28;20025;-66
2021/09/06 09:24:37;;;;;;;11.33;7.30;;;;;;;30.92;42.22;99177.88;5007335;28;20021;-66
2021/09/06 09:27:05;;;;;;;13.07;6.97;;;;;;;30.59;43.86;99175.53;5024713;28;20022;-66
2021/09/06 09:29:30;;;;;;;10.98;7.10;;;;;;;30.76;43.83;99179.44;5024655;28;20022;-66
2021/09/06 09:31:57;;;;;;;9.30;6.85;;;;;;;31.13;44.04;99175.84;5024071;28;20332;-66
2021/09/06 09:34:23;;;;;;;9.20;6.25;;;;;;;30.75;39.52;99180.47;5024630;28;20025;-66
2021/09/06 09:36:52;;;;;;;16.75;6.43;;;;;;;30.98;41.77;99173.72;5024617;28;20026;-66
2021/09/06 09:39:20;;;;;;;10.23;6.45;;;;;;;31.29;38.87;99171.72;5024493;28;20029;-66
2021/09/06 09:41:48;;;;;;;11.40;6.70;;;;;;;31.26;41.88;99174.69;5024402;28;20029;-66
2021/09/06 09:44:21;;;;;;;9.82;6.30;;;;;;;31.27;41.24;99166.41;5024411;28;20026;-66
2021/09/06 09:47:03;;;;;;;11.20;6.30;;;;;;;31.62;38.62;99182.94;5024460;28;20164;-66
2021/09/06 09:49:33;;;;;;;11.27;6.65;;;;;;;30.97;40.51;99172.03;5024397;28;20052;-66
2021/09/06 09:51:58;;;;;;;11.30;6.65;;;;;;;31.02;40.08;99176.00;5024354;28;20233;-66
2021/09/06 09:54:24;;;;;;;10.68;7.03;;;;;;;30.25;37.92;99182.38;5024309;28;20022;-66
2021/09/06 09:56:49;;;;;;;8.63;5.72;;;;;;;30.84;36.30;99174.13;5024230;28;20069;-66
2021/09/06 09:59:18;;;;;;;8.85;6.20;;;;;;;30.85;36.52;99173.16;5024234;28;20025;-66
2021/09/06 10:01:52;;;;;;;11.05;6.00;;;;;;;30.83;33.43;99173.31;5006661;28;20024;-66
2021/09/06 10:04:21;;;;;;;12.00;5.95;;;;;;;30.96;34.03;99175.72;5023996;28;20131;-66
2021/09/06 10:06:48;;;;;;;8.38;5.88;;;;;;;30.74;34.81;99176.00;5024161;28;20274;-66
2021/09/06 10:09:14;;;;;;;9.75;6.20;;;;;;;30.77;33.44;99178.44;5024166;28;20140;-66
2021/09/06 10:11:42;;;;;;;10.48;6.28;;;;;;;30.67;35.97;99172.13;5024088;28;20321;-66
2021/09/06 10:14:26;;;;;;;8.85;5.97;;;;;;;30.18;35.22;99174.91;5024067;28;20033;-66
2021/09/06 10:17:07;;;;;;;13.63;6.35;;;;;;;30.49;36.46;99163.81;5024091;28;20029;-66
2021/09/06 10:19:42;;;;;;;8.23;5.80;;;;;;;30.54;32.65;99164.25;5024051;28;20026;-66
2021/09/06 10:22:25;;;;;;;8.57;5.60;;;;;;;29.79;35.29;99173.00;5024202;28;20092;-66
2021/09/06 10:25:03;;;;;;;12.32;6.28;;;;;;;30.05;33.81;99166.13;5023988;28;20026;-66
2021/09/06 10:27:29;;;;;;;7.50;5.40;;;;;;;30.07;30.94;99164.09;5023895;28;20329;-66
2021/09/06 10:29:58;;;;;;;9.15;5.78;;;;;;;29.98;33.64;99170.38;5023938;28;20022;-66
2021/09/06 10:32:43;;;;;;;10.20;6.35;;;;;;;29.42;33.52;99163.66;5023926;28;20017;-66
2021/09/06 10:35:10;;;;;;;11.35;5.68;;;;;;;29.51;35.13;99160.16;5023932;28;20049;-66
2021/09/06 10:37:37;;;;;;;10.50;6.43;;;;;;;29.59;32.59;99160.31;5023886;28;20037;-66
2021/09/06 10:40:12;;;;;;;13.98;5.35;;;;;;;29.85;33.73;99153.47;5023767;28;20030;-66
2021/09/06 10:42:41;;;;;;;9.43;6.03;;;;;;;29.83;33.84;99158.19;5025262;28;20329;-66
2021/09/06 10:45:07;;;;;;;7.72;5.38;;;;;;;30.00;33.63;99149.38;5027710;28;20068;-66
2021/09/06 10:47:38;;;;;;;8.93;5.22;;;;;;;30.03;33.31;99151.81;5027595;28;20025;-66
2021/09/06 10:50:15;;;;;;;10.23;5.73;;;;;;;29.71;33.71;99153.84;5027691;28;20065;-66
2021/09/06 10:52:45;;;;;;;7.35;5.53;;;;;;;30.17;35.23;99145.97;5027573;28;20026;-66
2021/09/06 10:55:12;;;;;;;8.65;6.00;;;;;;;30.09;33.53;99143.13;5027467;28;20045;-66
2021/09/06 10:57:43;;;;;;;9.38;5.43;;;;;;;29.64;32.63;99152.69;5027440;28;20022;-66
2021/09/06 11:00:14;;;;;;;7.35;5.07;;;;;;;29.69;32.03;99139.53;5027382;28;20089;-66
2021/09/06 11:02:41;;;;;;;12.40;4.72;;;;;;;29.31;32.03;99155.59;5027361;28;20065;-66
2021/09/06 11:05:07;;;;;;;11.02;5.50;;;;;;;29.43;32.65;99143.69;5027342;28;20029;-66
2021/09/06 11:07:33;;;;;;;8.80;5.18;;;;;;;29.33;32.53;99148.19;5027212;28;20321;-66
2021/09/06 11:10:12;;;;;;;17.55;5.35;;;;;;;29.46;33.06;99148.84;5027218;28;20068;-66
2021/09/06 11:12:39;;;;;;;8.63;4.82;;;;;;;29.36;33.64;99140.66;5027201;28;20084;-66
2021/09/06 11:15:05;;;;;;;7.25;4.57;;;;;;;29.53;31.48;99145.44;5027161;28;20365;-66
2021/09/06 11:17:31;;;;;;;8.90;5.20;;;;;;;29.27;31.41;99143.31;5027032;28;20049;-66
2021/09/06 11:19:57;;;;;;;8.77;5.28;;;;;;;29.40;31.30;99155.66;5026997;28;20030;-66
2021/09/06 11:22:28;;;;;;;7.68;4.72;;;;;;;29.08;31.31;99150.31;5026983;28;20194;-66
2021/09/06 11:24:59;;;;;;;7.33;5.50;;;;;;;29.44;31.87;99151.69;5027272;28;20025;-66
2021/09/06 11:27:35;;;;;;;8.80;5.18;;;;;;;28.98;32.49;99148.53;5026964;28;20044;-66